sensor_id;sensor_type;location;lat;lon;timestamp;temperature;humidity
73137;DHT22;67767;45.636;11.756;2023-06-14T00:01:44;22.20;73.80
73137;DHT22;67767;45.636;11.756;2023-06-14T00:04:12;22.30;73.80
73137;DHT22;67767;45.636;11.756;2023-06-14T00:06:38;22.20;73.70
73137;DHT22;67767;45.636;11.756;2023-06-14T00:09:04;22.10;73.60
73137;DHT22;67767;45.636;11.756;2023-06-14T00:11:31;22.20;73.80
73137;DHT22;67767;45.636;11.756;2023-06-14T00:13:57;22.10;73.70
73137;DHT22;67767;45.636;11.756;2023-06-14T00:16:23;22.20;73.80
73137;DHT22;67767;45.636;11.756;2023-06-14T00:18:50;22.10;74.10
73137;DHT22;67767;45.636;11.756;2023-06-14T00:21:18;22.10;74.50
73137;DHT22;67767;45.636;11.756;2023-06-14T00:23:44;22.10;74.50
73137;DHT22;67767;45.636;11.756;2023-06-14T00:26:10;22.10;75.00
73137;DHT22;67767;45.636;11.756;2023-06-14T00:28:36;21.90;75.10
73137;DHT22;67767;45.636;11.756;2023-06-14T00:31:01;21.90;75.50
73137;DHT22;67767;45.636;11.756;2023-06-14T00:33:27;21.80;75.80
73137;DHT22;67767;45.636;11.756;2023-06-14T00:35:52;21.80;75.80
73137;DHT22;67767;45.636;11.756;2023-06-14T00:38:21;21.70;76.10
73137;DHT22;67767;45.636;11.756;2023-06-14T00:40:47;21.60;75.90
73137;DHT22;67767;45.636;11.756;2023-06-14T00:43:12;21.60;76.00
73137;DHT22;67767;45.636;11.756;2023-06-14T00:45:38;21.70;76.10
73137;DHT22;67767;45.636;11.756;2023-06-14T00:48:04;21.60;76.10
73137;DHT22;67767;45.636;11.756;2023-06-14T00:50:32;21.50;76.30
73137;DHT22;67767;45.636;11.756;2023-06-14T00:52:59;21.50;76.50
73137;DHT22;67767;45.636;11.756;2023-06-14T00:55:26;21.40;76.80
73137;DHT22;67767;45.636;11.756;2023-06-14T00:57:54;21.40;76.60
73137;DHT22;67767;45.636;11.756;2023-06-14T01:00:20;21.40;76.90
73137;DHT22;67767;45.636;11.756;2023-06-14T01:02:46;21.40;77.10
73137;DHT22;67767;45.636;11.756;2023-06-14T01:05:12;21.30;76.90
73137;DHT22;67767;45.636;11.756;2023-06-14T01:07:49;21.30;77.00
73137;DHT22;67767;45.636;11.756;2023-06-14T01:13:27;21.30;76.60
73137;DHT22;67767;45.636;11.756;2023-06-14T01:15:55;21.40;76.90
73137;DHT22;67767;45.636;11.756;2023-06-14T01:18:22;21.20;77.20
73137;DHT22;67767;45.636;11.756;2023-06-14T01:20:49;21.20;77.30
73137;DHT22;67767;45.636;11.756;2023-06-14T01:23:20;21.20;77.00
73137;DHT22;67767;45.636;11.756;2023-06-14T01:25:46;21.20;77.30
73137;DHT22;67767;45.636;11.756;2023-06-14T01:28:15;21.20;77.50
73137;DHT22;67767;45.636;11.756;2023-06-14T01:30:43;21.20;77.60
73137;DHT22;67767;45.636;11.756;2023-06-14T01:33:19;21.20;77.30
73137;DHT22;67767;45.636;11.756;2023-06-14T01:35:52;21.20;77.40
73137;DHT22;67767;45.636;11.756;2023-06-14T01:38:21;21.20;77.30
73137;DHT22;67767;45.636;11.756;2023-06-14T01:40:48;21.20;77.40
73137;DHT22;67767;45.636;11.756;2023-06-14T01:43:14;21.30;77.20
73137;DHT22;67767;45.636;11.756;2023-06-14T01:45:42;21.20;77.10
73137;DHT22;67767;45.636;11.756;2023-06-14T01:48:08;21.00;77.40
73137;DHT22;67767;45.636;11.756;2023-06-14T01:50:34;21.20;77.40
73137;DHT22;67767;45.636;11.756;2023-06-14T01:53:00;21.10;77.10
73137;DHT22;67767;45.636;11.756;2023-06-14T01:55:26;21.10;77.50
73137;DHT22;67767;45.636;11.756;2023-06-14T01:57:52;21.20;77.40
73137;DHT22;67767;45.636;11.756;2023-06-14T02:00:19;21.20;77.50
73137;DHT22;67767;45.636;11.756;2023-06-14T02:02:45;21.20;77.40
73137;DHT22;67767;45.636;11.756;2023-06-14T02:05:11;21.20;77.20
73137;DHT22;67767;45.636;11.756;2023-06-14T02:07:37;21.10;77.60
73137;DHT22;67767;45.636;11.756;2023-06-14T02:10:04;21.10;77.60
73137;DHT22;67767;45.636;11.756;2023-06-14T02:12:30;21.10;77.60
73137;DHT22;67767;45.636;11.756;2023-06-14T02:14:56;21.10;77.40
73137;DHT22;67767;45.636;11.756;2023-06-14T02:17:22;21.10;77.40
73137;DHT22;67767;45.636;11.756;2023-06-14T02:19:48;21.00;77.40
73137;DHT22;67767;45.636;11.756;2023-06-14T02:22:14;21.10;77.00
73137;DHT22;67767;45.636;11.756;2023-06-14T02:24:41;21.00;77.20
73137;DHT22;67767;45.636;11.756;2023-06-14T02:27:07;21.00;77.20
73137;DHT22;67767;45.636;11.756;2023-06-14T02:29:34;21.00;77.60
73137;DHT22;67767;45.636;11.756;2023-06-14T02:31:59;20.90;77.70
73137;DHT22;67767;45.636;11.756;2023-06-14T02:34:25;20.90;77.60
73137;DHT22;67767;45.636;11.756;2023-06-14T02:36:51;20.80;78.60
73137;DHT22;67767;45.636;11.756;2023-06-14T02:39:18;20.80;78.80
73137;DHT22;67767;45.636;11.756;2023-06-14T02:41:46;20.90;78.70
73137;DHT22;67767;45.636;11.756;2023-06-14T02:44:13;20.80;78.90
73137;DHT22;67767;45.636;11.756;2023-06-14T02:46:39;20.90;77.30
73137;DHT22;67767;45.636;11.756;2023-06-14T02:49:05;20.90;77.40
73137;DHT22;67767;45.636;11.756;2023-06-14T02:51:31;21.00;77.20
73137;DHT22;67767;45.636;11.756;2023-06-14T02:53:56;21.00;77.90
73137;DHT22;67767;45.636;11.756;2023-06-14T02:56:22;20.90;77.90
73137;DHT22;67767;45.636;11.756;2023-06-14T02:58:48;21.00;78.10
73137;DHT22;67767;45.636;11.756;2023-06-14T03:01:14;20.70;79.60
73137;DHT22;67767;45.636;11.756;2023-06-14T03:03:40;20.70;79.90
73137;DHT22;67767;45.636;11.756;2023-06-14T03:06:05;20.60;80.10
73137;DHT22;67767;45.636;11.756;2023-06-14T03:08:33;20.60;80.20
73137;DHT22;67767;45.636;11.756;2023-06-14T03:11:04;20.70;79.90
73137;DHT22;67767;45.636;11.756;2023-06-14T03:13:34;20.70;79.90
73137;DHT22;67767;45.636;11.756;2023-06-14T03:16:00;20.70;80.00
73137;DHT22;67767;45.636;11.756;2023-06-14T03:18:31;20.80;80.00
73137;DHT22;67767;45.636;11.756;2023-06-14T03:21:01;20.80;80.10
73137;DHT22;67767;45.636;11.756;2023-06-14T03:23:27;20.70;80.20
73137;DHT22;67767;45.636;11.756;2023-06-14T03:25:52;20.70;80.00
73137;DHT22;67767;45.636;11.756;2023-06-14T03:28:18;20.80;79.80
73137;DHT22;67767;45.636;11.756;2023-06-14T03:30:44;20.70;79.80
73137;DHT22;67767;45.636;11.756;2023-06-14T03:33:10;20.70;79.90
73137;DHT22;67767;45.636;11.756;2023-06-14T03:35:36;20.70;79.90
73137;DHT22;67767;45.636;11.756;2023-06-14T03:38:02;20.60;80.30
73137;DHT22;67767;45.636;11.756;2023-06-14T03:40:29;20.60;80.20
73137;DHT22;67767;45.636;11.756;2023-06-14T03:42:54;20.50;80.40
73137;DHT22;67767;45.636;11.756;2023-06-14T03:45:21;20.60;80.40
73137;DHT22;67767;45.636;11.756;2023-06-14T03:47:47;20.50;80.50
73137;DHT22;67767;45.636;11.756;2023-06-14T03:50:13;20.40;80.70
73137;DHT22;67767;45.636;11.756;2023-06-14T03:52:39;20.50;80.80
73137;DHT22;67767;45.636;11.756;2023-06-14T03:55:05;20.40;81.00
73137;DHT22;67767;45.636;11.756;2023-06-14T03:57:31;20.50;80.90
73137;DHT22;67767;45.636;11.756;2023-06-14T03:59:57;20.40;81.20
73137;DHT22;67767;45.636;11.756;2023-06-14T04:02:22;20.40;80.90
73137;DHT22;67767;45.636;11.756;2023-06-14T04:04:48;20.30;81.00
73137;DHT22;67767;45.636;11.756;2023-06-14T04:07:15;20.50;80.90
73137;DHT22;67767;45.636;11.756;2023-06-14T04:09:44;20.60;80.70
73137;DHT22;67767;45.636;11.756;2023-06-14T04:12:10;20.70;80.30
73137;DHT22;67767;45.636;11.756;2023-06-14T04:14:39;20.70;79.90
73137;DHT22;67767;45.636;11.756;2023-06-14T04:17:06;20.70;79.90
73137;DHT22;67767;45.636;11.756;2023-06-14T04:19:32;20.80;79.90
73137;DHT22;67767;45.636;11.756;2023-06-14T04:21:58;20.80;79.90
73137;DHT22;67767;45.636;11.756;2023-06-14T04:24:26;20.90;79.60
73137;DHT22;67767;45.636;11.756;2023-06-14T04:26:58;20.90;78.10
73137;DHT22;67767;45.636;11.756;2023-06-14T04:29:24;21.00;77.70
73137;DHT22;67767;45.636;11.756;2023-06-14T04:31:53;21.10;77.50
73137;DHT22;67767;45.636;11.756;2023-06-14T04:34:20;21.20;77.50
73137;DHT22;67767;45.636;11.756;2023-06-14T04:36:47;21.10;77.20
73137;DHT22;67767;45.636;11.756;2023-06-14T04:39:22;21.10;77.10
73137;DHT22;67767;45.636;11.756;2023-06-14T04:41:48;21.20;77.30
73137;DHT22;67767;45.636;11.756;2023-06-14T04:44:18;21.10;77.00
73137;DHT22;67767;45.636;11.756;2023-06-14T04:46:45;21.10;77.10
73137;DHT22;67767;45.636;11.756;2023-06-14T04:49:20;21.20;77.30
73137;DHT22;67767;45.636;11.756;2023-06-14T04:51:48;21.30;77.20
73137;DHT22;67767;45.636;11.756;2023-06-14T04:54:23;21.40;77.10
73137;DHT22;67767;45.636;11.756;2023-06-14T04:56:50;21.50;76.90
73137;DHT22;67767;45.636;11.756;2023-06-14T04:59:16;21.50;76.90
73137;DHT22;67767;45.636;11.756;2023-06-14T05:01:43;21.60;76.70
73137;DHT22;67767;45.636;11.756;2023-06-14T05:04:14;21.80;76.50
73137;DHT22;67767;45.636;11.756;2023-06-14T05:06:41;21.90;76.20
73137;DHT22;67767;45.636;11.756;2023-06-14T05:09:07;21.90;76.30
73137;DHT22;67767;45.636;11.756;2023-06-14T05:11:33;21.90;76.00
73137;DHT22;67767;45.636;11.756;2023-06-14T05:13:58;22.10;76.00
73137;DHT22;67767;45.636;11.756;2023-06-14T05:16:24;22.10;76.00
73137;DHT22;67767;45.636;11.756;2023-06-14T05:18:51;22.20;75.80
73137;DHT22;67767;45.636;11.756;2023-06-14T05:21:17;22.30;75.70
73137;DHT22;67767;45.636;11.756;2023-06-14T05:23:44;22.20;75.60
73137;DHT22;67767;45.636;11.756;2023-06-14T05:26:11;22.20;75.70
73137;DHT22;67767;45.636;11.756;2023-06-14T05:28:36;22.20;75.70
73137;DHT22;67767;45.636;11.756;2023-06-14T05:31:02;22.30;76.10
73137;DHT22;67767;45.636;11.756;2023-06-14T05:33:28;22.60;75.60
73137;DHT22;67767;45.636;11.756;2023-06-14T05:35:54;22.50;75.50
73137;DHT22;67767;45.636;11.756;2023-06-14T05:38:20;22.70;75.20
73137;DHT22;67767;45.636;11.756;2023-06-14T05:40:46;22.70;75.30
73137;DHT22;67767;45.636;11.756;2023-06-14T05:43:12;22.70;75.40
73137;DHT22;67767;45.636;11.756;2023-06-14T05:45:37;22.70;75.10
73137;DHT22;67767;45.636;11.756;2023-06-14T05:48:03;22.70;75.40
73137;DHT22;67767;45.636;11.756;2023-06-14T05:50:29;22.90;75.40
73137;DHT22;67767;45.636;11.756;2023-06-14T05:52:55;23.10;74.60
73137;DHT22;67767;45.636;11.756;2023-06-14T05:55:21;23.10;74.20
73137;DHT22;67767;45.636;11.756;2023-06-14T05:57:47;23.20;74.30
73137;DHT22;67767;45.636;11.756;2023-06-14T06:00:14;23.50;74.10
73137;DHT22;67767;45.636;11.756;2023-06-14T06:02:45;23.80;73.70
73137;DHT22;67767;45.636;11.756;2023-06-14T06:05:14;24.00;73.50
73137;DHT22;67767;45.636;11.756;2023-06-14T06:07:41;24.20;72.40
73137;DHT22;67767;45.636;11.756;2023-06-14T06:10:07;24.20;71.40
73137;DHT22;67767;45.636;11.756;2023-06-14T06:12:33;24.30;71.60
73137;DHT22;67767;45.636;11.756;2023-06-14T06:14:59;24.30;71.10
73137;DHT22;67767;45.636;11.756;2023-06-14T06:17:25;24.20;70.80
73137;DHT22;67767;45.636;11.756;2023-06-14T06:19:51;24.20;68.00
73137;DHT22;67767;45.636;11.756;2023-06-14T06:22:17;24.30;68.20
73137;DHT22;67767;45.636;11.756;2023-06-14T06:24:43;24.50;68.10
73137;DHT22;67767;45.636;11.756;2023-06-14T06:27:09;24.90;67.10
73137;DHT22;67767;45.636;11.756;2023-06-14T06:29:35;24.70;66.10
73137;DHT22;67767;45.636;11.756;2023-06-14T06:32:01;24.80;66.10
73137;DHT22;67767;45.636;11.756;2023-06-14T06:34:27;24.60;65.50
73137;DHT22;67767;45.636;11.756;2023-06-14T06:36:52;24.70;65.70
73137;DHT22;67767;45.636;11.756;2023-06-14T06:39:18;25.30;65.60
73137;DHT22;67767;45.636;11.756;2023-06-14T06:41:44;25.70;64.00
73137;DHT22;67767;45.636;11.756;2023-06-14T06:44:10;25.60;62.40
73137;DHT22;67767;45.636;11.756;2023-06-14T06:46:36;25.90;60.90
73137;DHT22;67767;45.636;11.756;2023-06-14T06:49:09;26.10;58.90
73137;DHT22;67767;45.636;11.756;2023-06-14T06:51:37;26.20;59.60
73137;DHT22;67767;45.636;11.756;2023-06-14T06:54:03;26.20;57.90
73137;DHT22;67767;45.636;11.756;2023-06-14T06:56:28;26.00;58.20
73137;DHT22;67767;45.636;11.756;2023-06-14T06:58:54;25.90;57.90
73137;DHT22;67767;45.636;11.756;2023-06-14T07:01:20;26.20;57.60
73137;DHT22;67767;45.636;11.756;2023-06-14T07:03:46;26.50;56.10
73137;DHT22;67767;45.636;11.756;2023-06-14T07:06:12;26.70;55.50
73137;DHT22;67767;45.636;11.756;2023-06-14T07:08:37;27.00;55.60
73137;DHT22;67767;45.636;11.756;2023-06-14T07:11:06;27.40;53.80
73137;DHT22;67767;45.636;11.756;2023-06-14T07:13:32;27.40;52.90
73137;DHT22;67767;45.636;11.756;2023-06-14T07:15:59;27.50;54.50
73137;DHT22;67767;45.636;11.756;2023-06-14T07:18:26;27.50;53.10
73137;DHT22;67767;45.636;11.756;2023-06-14T07:20:53;27.70;51.70
73137;DHT22;67767;45.636;11.756;2023-06-14T07:23:20;27.50;52.80
73137;DHT22;67767;45.636;11.756;2023-06-14T07:25:46;27.20;53.80
73137;DHT22;67767;45.636;11.756;2023-06-14T07:28:12;27.30;53.60
73137;DHT22;67767;45.636;11.756;2023-06-14T07:30:38;27.30;53.80
73137;DHT22;67767;45.636;11.756;2023-06-14T07:33:03;27.20;54.60
73137;DHT22;67767;45.636;11.756;2023-06-14T07:35:29;27.30;55.20
73137;DHT22;67767;45.636;11.756;2023-06-14T07:37:55;27.30;54.90
73137;DHT22;67767;45.636;11.756;2023-06-14T07:40:20;27.40;54.00
73137;DHT22;67767;45.636;11.756;2023-06-14T07:42:46;27.50;55.20
73137;DHT22;67767;45.636;11.756;2023-06-14T07:45:15;27.50;55.20
73137;DHT22;67767;45.636;11.756;2023-06-14T07:47:40;27.40;55.60
73137;DHT22;67767;45.636;11.756;2023-06-14T07:50:06;27.30;55.90
73137;DHT22;67767;45.636;11.756;2023-06-14T07:52:32;27.40;56.70
73137;DHT22;67767;45.636;11.756;2023-06-14T07:54:58;27.50;56.60
73137;DHT22;67767;45.636;11.756;2023-06-14T07:57:24;27.50;55.60
73137;DHT22;67767;45.636;11.756;2023-06-14T07:59:50;27.50;55.30
73137;DHT22;67767;45.636;11.756;2023-06-14T08:02:15;27.30;53.60
73137;DHT22;67767;45.636;11.756;2023-06-14T08:04:41;27.20;52.70
73137;DHT22;67767;45.636;11.756;2023-06-14T08:07:07;27.30;54.80
73137;DHT22;67767;45.636;11.756;2023-06-14T08:09:33;27.40;53.60
73137;DHT22;67767;45.636;11.756;2023-06-14T08:11:59;27.50;54.10
73137;DHT22;67767;45.636;11.756;2023-06-14T08:14:25;27.70;55.00
73137;DHT22;67767;45.636;11.756;2023-06-14T08:16:51;27.60;55.50
73137;DHT22;67767;45.636;11.756;2023-06-14T08:19:17;27.40;55.20
73137;DHT22;67767;45.636;11.756;2023-06-14T08:21:43;27.60;54.90
73137;DHT22;67767;45.636;11.756;2023-06-14T08:24:11;28.10;54.50
73137;DHT22;67767;45.636;11.756;2023-06-14T08:26:38;28.10;53.20
73137;DHT22;67767;45.636;11.756;2023-06-14T08:29:05;28.20;53.10
73137;DHT22;67767;45.636;11.756;2023-06-14T08:31:32;28.40;53.20
73137;DHT22;67767;45.636;11.756;2023-06-14T08:33:58;28.30;53.80
73137;DHT22;67767;45.636;11.756;2023-06-14T08:36:24;28.30;52.80
73137;DHT22;67767;45.636;11.756;2023-06-14T08:38:50;28.40;52.20
73137;DHT22;67767;45.636;11.756;2023-06-14T08:41:21;28.40;51.30
73137;DHT22;67767;45.636;11.756;2023-06-14T08:43:48;28.80;50.60
73137;DHT22;67767;45.636;11.756;2023-06-14T08:46:15;28.60;50.40
73137;DHT22;67767;45.636;11.756;2023-06-14T08:48:47;28.50;51.20
73137;DHT22;67767;45.636;11.756;2023-06-14T08:51:13;28.40;51.00
73137;DHT22;67767;45.636;11.756;2023-06-14T08:53:43;28.40;50.80
73137;DHT22;67767;45.636;11.756;2023-06-14T08:56:09;28.60;50.00
73137;DHT22;67767;45.636;11.756;2023-06-14T08:58:49;28.60;50.30
73137;DHT22;67767;45.636;11.756;2023-06-14T09:01:15;28.70;49.80
73137;DHT22;67767;45.636;11.756;2023-06-14T09:03:43;28.40;49.10
73137;DHT22;67767;45.636;11.756;2023-06-14T09:06:10;28.50;48.80
73137;DHT22;67767;45.636;11.756;2023-06-14T09:08:47;28.50;50.50
73137;DHT22;67767;45.636;11.756;2023-06-14T09:11:15;28.60;50.70
73137;DHT22;67767;45.636;11.756;2023-06-14T09:13:42;28.60;48.80
73137;DHT22;67767;45.636;11.756;2023-06-14T09:16:08;28.50;48.70
73137;DHT22;67767;45.636;11.756;2023-06-14T09:18:42;28.50;49.10
73137;DHT22;67767;45.636;11.756;2023-06-14T09:21:14;28.60;49.60
73137;DHT22;67767;45.636;11.756;2023-06-14T09:23:42;28.60;49.70
73137;DHT22;67767;45.636;11.756;2023-06-14T09:26:12;28.70;49.10
73137;DHT22;67767;45.636;11.756;2023-06-14T09:28:48;28.60;50.60
73137;DHT22;67767;45.636;11.756;2023-06-14T09:31:16;28.50;50.30
73137;DHT22;67767;45.636;11.756;2023-06-14T09:33:43;28.40;50.10
73137;DHT22;67767;45.636;11.756;2023-06-14T09:36:24;28.50;51.20
73137;DHT22;67767;45.636;11.756;2023-06-14T09:38:58;28.70;51.70
73137;DHT22;67767;45.636;11.756;2023-06-14T09:41:38;28.90;51.30
73137;DHT22;67767;45.636;11.756;2023-06-14T09:44:05;28.70;51.60
73137;DHT22;67767;45.636;11.756;2023-06-14T09:46:32;28.20;52.10
73137;DHT22;67767;45.636;11.756;2023-06-14T09:48:59;28.00;51.50
73137;DHT22;67767;45.636;11.756;2023-06-14T09:51:26;27.80;52.50
73137;DHT22;67767;45.636;11.756;2023-06-14T09:53:53;27.70;52.90
73137;DHT22;67767;45.636;11.756;2023-06-14T09:56:29;28.10;51.60
73137;DHT22;67767;45.636;11.756;2023-06-14T09:58:59;28.30;51.10
73137;DHT22;67767;45.636;11.756;2023-06-14T10:01:26;28.20;51.40
73137;DHT22;67767;45.636;11.756;2023-06-14T10:04:04;28.20;51.30
73137;DHT22;67767;45.636;11.756;2023-06-14T10:06:31;28.10;51.60
73137;DHT22;67767;45.636;11.756;2023-06-14T10:08:58;28.30;51.20
73137;DHT22;67767;45.636;11.756;2023-06-14T10:11:28;28.30;51.00
73137;DHT22;67767;45.636;11.756;2023-06-14T10:13:57;28.30;50.80
73137;DHT22;67767;45.636;11.756;2023-06-14T10:17:27;28.20;50.80
73137;DHT22;67767;45.636;11.756;2023-06-14T10:19:37;28.30;50.30
73137;DHT22;67767;45.636;11.756;2023-06-14T10:22:12;28.40;51.70
73137;DHT22;67767;45.636;11.756;2023-06-14T10:24:44;28.50;49.50
73137;DHT22;67767;45.636;11.756;2023-06-14T10:27:13;28.70;49.10
73137;DHT22;67767;45.636;11.756;2023-06-14T10:32:22;28.60;49.50
73137;DHT22;67767;45.636;11.756;2023-06-14T10:34:57;28.80;50.00
73137;DHT22;67767;45.636;11.756;2023-06-14T10:37:23;28.80;49.70
73137;DHT22;67767;45.636;11.756;2023-06-14T10:39:52;29.00;50.00
73137;DHT22;67767;45.636;11.756;2023-06-14T10:42:18;29.10;48.90
73137;DHT22;67767;45.636;11.756;2023-06-14T10:44:55;28.60;49.80
73137;DHT22;67767;45.636;11.756;2023-06-14T10:47:38;28.90;50.10
73137;DHT22;67767;45.636;11.756;2023-06-14T10:50:09;29.10;50.20
73137;DHT22;67767;45.636;11.756;2023-06-14T10:52:41;29.10;47.40
73137;DHT22;67767;45.636;11.756;2023-06-14T10:55:08;29.20;47.90
73137;DHT22;67767;45.636;11.756;2023-06-14T10:57:46;29.40;48.10
73137;DHT22;67767;45.636;11.756;2023-06-14T11:00:14;30.10;46.90
73137;DHT22;67767;45.636;11.756;2023-06-14T11:05:25;30.10;45.40
73137;DHT22;67767;45.636;11.756;2023-06-14T11:10:54;30.40;43.40
73137;DHT22;67767;45.636;11.756;2023-06-14T11:13:25;30.50;42.80
73137;DHT22;67767;45.636;11.756;2023-06-14T11:15:51;30.40;42.60
73137;DHT22;67767;45.636;11.756;2023-06-14T11:18:18;30.40;43.00
73137;DHT22;67767;45.636;11.756;2023-06-14T11:20:46;30.70;43.10
73137;DHT22;67767;45.636;11.756;2023-06-14T11:23:12;30.50;41.50
73137;DHT22;67767;45.636;11.756;2023-06-14T11:25:38;30.70;42.10
73137;DHT22;67767;45.636;11.756;2023-06-14T11:28:03;30.90;42.30
73137;DHT22;67767;45.636;11.756;2023-06-14T11:30:29;30.30;42.60
73137;DHT22;67767;45.636;11.756;2023-06-14T11:32:55;30.70;42.70
73137;DHT22;67767;45.636;11.756;2023-06-14T11:35:25;30.60;42.80
73137;DHT22;67767;45.636;11.756;2023-06-14T11:37:55;30.50;43.30
73137;DHT22;67767;45.636;11.756;2023-06-14T11:40:24;30.90;42.50
73137;DHT22;67767;45.636;11.756;2023-06-14T11:42:51;31.60;42.20
73137;DHT22;67767;45.636;11.756;2023-06-14T11:45:23;32.00;39.80
73137;DHT22;67767;45.636;11.756;2023-06-14T11:47:48;32.20;39.30
73137;DHT22;67767;45.636;11.756;2023-06-14T11:50:14;32.60;38.10
73137;DHT22;67767;45.636;11.756;2023-06-14T11:52:40;32.40;38.30
73137;DHT22;67767;45.636;11.756;2023-06-14T11:55:06;32.10;38.40
73137;DHT22;67767;45.636;11.756;2023-06-14T11:57:35;31.90;37.40
73137;DHT22;67767;45.636;11.756;2023-06-14T12:00:06;32.00;39.00
73137;DHT22;67767;45.636;11.756;2023-06-14T12:02:41;32.00;40.20
73137;DHT22;67767;45.636;11.756;2023-06-14T12:05:08;31.90;40.20
73137;DHT22;67767;45.636;11.756;2023-06-14T12:07:37;31.40;41.80
73137;DHT22;67767;45.636;11.756;2023-06-14T12:10:06;31.30;41.30
73137;DHT22;67767;45.636;11.756;2023-06-14T12:12:40;31.70;41.20
73137;DHT22;67767;45.636;11.756;2023-06-14T12:15:06;31.50;41.70
73137;DHT22;67767;45.636;11.756;2023-06-14T12:17:34;31.80;40.20
73137;DHT22;67767;45.636;11.756;2023-06-14T12:20:12;32.10;39.60
73137;DHT22;67767;45.636;11.756;2023-06-14T12:22:58;32.50;37.00
73137;DHT22;67767;45.636;11.756;2023-06-14T12:25:30;33.10;37.20
73137;DHT22;67767;45.636;11.756;2023-06-14T12:28:04;33.10;36.10
73137;DHT22;67767;45.636;11.756;2023-06-14T12:30:31;33.30;35.60
73137;DHT22;67767;45.636;11.756;2023-06-14T12:32:56;33.40;36.50
73137;DHT22;67767;45.636;11.756;2023-06-14T12:35:22;33.50;35.80
73137;DHT22;67767;45.636;11.756;2023-06-14T12:37:48;33.80;34.80
73137;DHT22;67767;45.636;11.756;2023-06-14T12:40:13;33.50;34.70
73137;DHT22;67767;45.636;11.756;2023-06-14T12:42:40;33.90;36.00
73137;DHT22;67767;45.636;11.756;2023-06-14T12:45:07;33.80;36.10
73137;DHT22;67767;45.636;11.756;2023-06-14T12:47:32;34.10;33.50
73137;DHT22;67767;45.636;11.756;2023-06-14T12:49:58;34.40;33.10
73137;DHT22;67767;45.636;11.756;2023-06-14T12:52:25;34.40;34.10
73137;DHT22;67767;45.636;11.756;2023-06-14T12:54:50;34.40;34.80
73137;DHT22;67767;45.636;11.756;2023-06-14T12:57:16;34.50;33.70
73137;DHT22;67767;45.636;11.756;2023-06-14T12:59:43;34.50;33.70
73137;DHT22;67767;45.636;11.756;2023-06-14T13:02:19;34.30;32.50
73137;DHT22;67767;45.636;11.756;2023-06-14T13:04:47;34.60;32.00
73137;DHT22;67767;45.636;11.756;2023-06-14T13:07:13;34.60;32.50
73137;DHT22;67767;45.636;11.756;2023-06-14T13:09:40;34.80;31.60
73137;DHT22;67767;45.636;11.756;2023-06-14T13:12:09;35.00;31.40
73137;DHT22;67767;45.636;11.756;2023-06-14T13:14:36;35.60;30.20
73137;DHT22;67767;45.636;11.756;2023-06-14T13:17:02;35.80;31.30
73137;DHT22;67767;45.636;11.756;2023-06-14T13:19:28;35.40;31.10
73137;DHT22;67767;45.636;11.756;2023-06-14T13:21:54;35.50;30.00
73137;DHT22;67767;45.636;11.756;2023-06-14T13:24:19;35.70;29.10
73137;DHT22;67767;45.636;11.756;2023-06-14T13:26:45;35.90;29.50
73137;DHT22;67767;45.636;11.756;2023-06-14T13:29:11;36.60;29.80
73137;DHT22;67767;45.636;11.756;2023-06-14T13:31:36;37.00;29.80
73137;DHT22;67767;45.636;11.756;2023-06-14T13:34:02;36.90;29.20
73137;DHT22;67767;45.636;11.756;2023-06-14T13:36:28;36.10;29.90
73137;DHT22;67767;45.636;11.756;2023-06-14T13:38:55;36.30;31.30
73137;DHT22;67767;45.636;11.756;2023-06-14T13:41:21;36.30;30.00
73137;DHT22;67767;45.636;11.756;2023-06-14T13:43:46;36.30;30.00
73137;DHT22;67767;45.636;11.756;2023-06-14T13:46:12;36.20;29.10
73137;DHT22;67767;45.636;11.756;2023-06-14T13:48:38;36.80;28.10
73137;DHT22;67767;45.636;11.756;2023-06-14T13:51:04;36.30;29.30
73137;DHT22;67767;45.636;11.756;2023-06-14T13:53:30;36.40;29.70
73137;DHT22;67767;45.636;11.756;2023-06-14T13:55:56;36.60;29.60
73137;DHT22;67767;45.636;11.756;2023-06-14T13:58:21;36.70;29.00
73137;DHT22;67767;45.636;11.756;2023-06-14T14:00:49;36.70;28.60
73137;DHT22;67767;45.636;11.756;2023-06-14T14:03:15;37.00;27.20
73137;DHT22;67767;45.636;11.756;2023-06-14T14:05:40;36.60;28.50
73137;DHT22;67767;45.636;11.756;2023-06-14T14:08:06;36.30;28.40
73137;DHT22;67767;45.636;11.756;2023-06-14T14:10:32;36.10;29.10
73137;DHT22;67767;45.636;11.756;2023-06-14T14:12:58;36.10;28.50
73137;DHT22;67767;45.636;11.756;2023-06-14T14:15:25;36.20;27.60
73137;DHT22;67767;45.636;11.756;2023-06-14T14:17:50;36.00;28.50
73137;DHT22;67767;45.636;11.756;2023-06-14T14:20:17;34.70;30.40
73137;DHT22;67767;45.636;11.756;2023-06-14T14:22:43;34.90;30.00
73137;DHT22;67767;45.636;11.756;2023-06-14T14:25:09;34.60;30.70
73137;DHT22;67767;45.636;11.756;2023-06-14T14:27:36;34.80;29.60
73137;DHT22;67767;45.636;11.756;2023-06-14T14:30:03;35.10;29.80
73137;DHT22;67767;45.636;11.756;2023-06-14T14:32:29;34.20;29.50
73137;DHT22;67767;45.636;11.756;2023-06-14T14:34:54;34.60;29.50
73137;DHT22;67767;45.636;11.756;2023-06-14T14:37:20;34.70;29.00
73137;DHT22;67767;45.636;11.756;2023-06-14T14:39:46;34.60;29.10
73137;DHT22;67767;45.636;11.756;2023-06-14T14:42:12;35.30;29.10
73137;DHT22;67767;45.636;11.756;2023-06-14T14:44:38;35.40;30.10
73137;DHT22;67767;45.636;11.756;2023-06-14T14:47:05;35.40;30.00
73137;DHT22;67767;45.636;11.756;2023-06-14T14:49:31;35.60;29.60
73137;DHT22;67767;45.636;11.756;2023-06-14T14:51:57;35.70;30.50
73137;DHT22;67767;45.636;11.756;2023-06-14T14:54:23;35.40;29.00
73137;DHT22;67767;45.636;11.756;2023-06-14T14:56:51;35.60;28.80
73137;DHT22;67767;45.636;11.756;2023-06-14T14:59:16;35.30;29.20
73137;DHT22;67767;45.636;11.756;2023-06-14T15:01:42;35.20;30.20
73137;DHT22;67767;45.636;11.756;2023-06-14T15:04:08;35.40;29.60
73137;DHT22;67767;45.636;11.756;2023-06-14T15:06:33;35.50;29.80
73137;DHT22;67767;45.636;11.756;2023-06-14T15:09:01;35.50;29.90
73137;DHT22;67767;45.636;11.756;2023-06-14T15:11:26;36.00;30.20
73137;DHT22;67767;45.636;11.756;2023-06-14T15:13:53;36.00;30.50
73137;DHT22;67767;45.636;11.756;2023-06-14T15:16:19;35.50;29.60
73137;DHT22;67767;45.636;11.756;2023-06-14T15:18:44;35.10;30.80
73137;DHT22;67767;45.636;11.756;2023-06-14T15:21:11;34.30;32.70
73137;DHT22;67767;45.636;11.756;2023-06-14T15:23:37;34.20;32.80
73137;DHT22;67767;45.636;11.756;2023-06-14T15:26:02;34.50;33.50
73137;DHT22;67767;45.636;11.756;2023-06-14T15:28:28;34.80;31.70